sensor_id;sensor_type;location;lat;lon;timestamp;pressure;altitude;pressure_sealevel;temperature;humidity
50011;BME280;35899;50.352;19.390;2022-07-23T00:00:18;97860.66;;;21.66;60.12
50011;BME280;35899;50.352;19.390;2022-07-23T00:02:48;97859.77;;;21.55;59.82
50011;BME280;35899;50.352;19.390;2022-07-23T00:05:15;97856.88;;;21.41;59.70
50011;BME280;35899;50.352;19.390;2022-07-23T00:07:42;97858.96;;;21.31;59.84
50011;BME280;35899;50.352;19.390;2022-07-23T00:10:09;97857.72;;;21.19;59.98
50011;BME280;35899;50.352;19.390;2022-07-23T00:12:38;97862.09;;;21.07;60.29
50011;BME280;35899;50.352;19.390;2022-07-23T00:15:06;97864.80;;;20.99;60.27
50011;BME280;35899;50.352;19.390;2022-07-23T00:17:34;97864.53;;;20.90;60.37
50011;BME280;35899;50.352;19.390;2022-07-23T00:20:01;97870.84;;;20.85;60.57
50011;BME280;35899;50.352;19.390;2022-07-23T00:22:29;97879.91;;;20.82;60.77
50011;BME280;35899;50.352;19.390;2022-07-23T00:24:56;97881.37;;;20.89;61.32
50011;BME280;35899;50.352;19.390;2022-07-23T00:27:23;97877.05;;;20.96;61.62
50011;BME280;35899;50.352;19.390;2022-07-23T00:29:50;97878.47;;;21.03;61.70
50011;BME280;35899;50.352;19.390;2022-07-23T00:32:17;97880.26;;;21.06;61.72
50011;BME280;35899;50.352;19.390;2022-07-23T00:34:44;97874.64;;;21.09;61.82
50011;BME280;35899;50.352;19.390;2022-07-23T00:37:11;97873.97;;;21.12;61.93
50011;BME280;35899;50.352;19.390;2022-07-23T00:39:38;97867.67;;;21.13;61.95
50011;BME280;35899;50.352;19.390;2022-07-23T00:42:06;97870.14;;;21.14;62.03
50011;BME280;35899;50.352;19.390;2022-07-23T00:44:33;97870.17;;;21.10;61.79
50011;BME280;35899;50.352;19.390;2022-07-23T00:47:00;97873.53;;;21.00;61.38
50011;BME280;35899;50.352;19.390;2022-07-23T00:49:29;97871.77;;;20.96;61.74
50011;BME280;35899;50.352;19.390;2022-07-23T00:51:57;97871.45;;;20.91;61.63
50011;BME280;35899;50.352;19.390;2022-07-23T00:54:27;97873.48;;;20.81;61.49
50011;BME280;35899;50.352;19.390;2022-07-23T00:56:55;97867.63;;;20.70;61.53
50011;BME280;35899;50.352;19.390;2022-07-23T00:59:22;97872.61;;;20.61;61.61
50011;BME280;35899;50.352;19.390;2022-07-23T01:01:49;97876.42;;;20.55;61.79
50011;BME280;35899;50.352;19.390;2022-07-23T01:04:16;97878.09;;;20.47;61.88
50011;BME280;35899;50.352;19.390;2022-07-23T01:06:44;97877.96;;;20.37;61.73
50011;BME280;35899;50.352;19.390;2022-07-23T01:09:12;97879.32;;;20.28;61.74
50011;BME280;35899;50.352;19.390;2022-07-23T01:11:40;97879.34;;;20.24;61.90
50011;BME280;35899;50.352;19.390;2022-07-23T01:14:14;97875.39;;;20.16;61.78
50011;BME280;35899;50.352;19.390;2022-07-23T01:16:43;97866.55;;;20.09;61.95
50011;BME280;35899;50.352;19.390;2022-07-23T01:19:12;97866.21;;;20.08;62.27
50011;BME280;35899;50.352;19.390;2022-07-23T01:24:11;97875.11;;;20.03;62.50
50011;BME280;35899;50.352;19.390;2022-07-23T01:26:43;97873.82;;;19.95;62.56
50011;BME280;35899;50.352;19.390;2022-07-23T01:29:11;97875.14;;;19.95;63.08
50011;BME280;35899;50.352;19.390;2022-07-23T01:31:41;97877.95;;;19.97;63.54
50011;BME280;35899;50.352;19.390;2022-07-23T01:34:08;97876.78;;;20.00;63.85
50011;BME280;35899;50.352;19.390;2022-07-23T01:36:36;97870.05;;;19.97;63.65
50011;BME280;35899;50.352;19.390;2022-07-23T01:39:04;97869.20;;;19.97;63.76
50011;BME280;35899;50.352;19.390;2022-07-23T01:41:32;97870.50;;;20.01;64.12
50011;BME280;35899;50.352;19.390;2022-07-23T01:44:00;97865.41;;;20.03;64.29
50011;BME280;35899;50.352;19.390;2022-07-23T01:46:28;97864.56;;;20.03;64.23
50011;BME280;35899;50.352;19.390;2022-07-23T01:48:56;97859.01;;;19.98;63.71
50011;BME280;35899;50.352;19.390;2022-07-23T01:51:24;97856.38;;;19.89;63.58
50011;BME280;35899;50.352;19.390;2022-07-23T01:53:53;97859.37;;;19.82;63.57
50011;BME280;35899;50.352;19.390;2022-07-23T01:56:20;97860.87;;;19.77;63.57
50011;BME280;35899;50.352;19.390;2022-07-23T01:58:48;97860.69;;;19.74;63.92
50011;BME280;35899;50.352;19.390;2022-07-23T02:01:16;97862.34;;;19.79;64.50
50011;BME280;35899;50.352;19.390;2022-07-23T02:03:43;97860.34;;;19.85;64.83
50011;BME280;35899;50.352;19.390;2022-07-23T02:06:10;97867.42;;;19.85;64.43
50011;BME280;35899;50.352;19.390;2022-07-23T02:08:37;97866.28;;;19.79;64.31
50011;BME280;35899;50.352;19.390;2022-07-23T02:11:05;97865.63;;;19.81;64.68
50011;BME280;35899;50.352;19.390;2022-07-23T02:13:33;97868.91;;;19.83;64.93
50011;BME280;35899;50.352;19.390;2022-07-23T02:16:00;97868.08;;;19.87;65.05
50011;BME280;35899;50.352;19.390;2022-07-23T02:18:28;97870.55;;;19.88;65.05
50011;BME280;35899;50.352;19.390;2022-07-23T02:20:55;97873.02;;;19.90;65.07
50011;BME280;35899;50.352;19.390;2022-07-23T02:23:23;97870.05;;;19.89;65.02
50011;BME280;35899;50.352;19.390;2022-07-23T02:25:50;97872.84;;;19.87;65.02
50011;BME280;35899;50.352;19.390;2022-07-23T02:28:17;97871.54;;;19.83;64.82
50011;BME280;35899;50.352;19.390;2022-07-23T02:30:44;97867.27;;;19.74;64.43
50011;BME280;35899;50.352;19.390;2022-07-23T02:33:11;97869.08;;;19.65;64.24
50011;BME280;35899;50.352;19.390;2022-07-23T02:35:39;97875.18;;;19.58;64.28
50011;BME280;35899;50.352;19.390;2022-07-23T02:38:07;97875.49;;;19.59;64.93
50011;BME280;35899;50.352;19.390;2022-07-23T02:40:35;97874.02;;;19.60;65.28
50011;BME280;35899;50.352;19.390;2022-07-23T02:43:02;97873.02;;;19.57;65.44
50011;BME280;35899;50.352;19.390;2022-07-23T02:45:29;97870.39;;;19.57;65.67
50011;BME280;35899;50.352;19.390;2022-07-23T02:47:57;97869.73;;;19.55;65.52
50011;BME280;35899;50.352;19.390;2022-07-23T02:50:24;97866.14;;;19.52;65.31
50011;BME280;35899;50.352;19.390;2022-07-23T02:52:53;97867.95;;;19.51;65.52
50011;BME280;35899;50.352;19.390;2022-07-23T02:55:20;97870.25;;;19.50;65.42
50011;BME280;35899;50.352;19.390;2022-07-23T02:57:48;97862.17;;;19.40;65.03
50011;BME280;35899;50.352;19.390;2022-07-23T03:00:15;97868.92;;;19.34;65.05
50011;BME280;35899;50.352;19.390;2022-07-23T03:02:42;97869.59;;;19.28;65.00
50011;BME280;35899;50.352;19.390;2022-07-23T03:05:10;97872.72;;;19.27;65.33
50011;BME280;35899;50.352;19.390;2022-07-23T03:07:38;97864.67;;;19.25;65.08
50011;BME280;35899;50.352;19.390;2022-07-23T03:10:06;97860.05;;;19.19;64.97
50011;BME280;35899;50.352;19.390;2022-07-23T03:12:33;97853.16;;;19.18;65.16
50011;BME280;35899;50.352;19.390;2022-07-23T03:15:00;97852.50;;;19.16;65.15
50011;BME280;35899;50.352;19.390;2022-07-23T03:17:27;97850.34;;;19.11;64.88
50011;BME280;35899;50.352;19.390;2022-07-23T03:19:54;97848.88;;;19.04;64.82
50011;BME280;35899;50.352;19.390;2022-07-23T03:22:23;97844.58;;;18.99;64.87
50011;BME280;35899;50.352;19.390;2022-07-23T03:24:50;97843.42;;;18.98;64.82
50011;BME280;35899;50.352;19.390;2022-07-23T03:27:22;97840.30;;;18.94;64.77
50011;BME280;35899;50.352;19.390;2022-07-23T03:29:52;97838.01;;;18.95;65.02
50011;BME280;35899;50.352;19.390;2022-07-23T03:32:21;97846.90;;;19.02;65.10
50011;BME280;35899;50.352;19.390;2022-07-23T03:34:51;97847.55;;;19.08;64.98
50011;BME280;35899;50.352;19.390;2022-07-23T03:37:19;97846.24;;;19.08;64.64
50011;BME280;35899;50.352;19.390;2022-07-23T03:39:46;97851.19;;;19.11;64.66
50011;BME280;35899;50.352;19.390;2022-07-23T03:42:13;97855.95;;;19.12;64.37
50011;BME280;35899;50.352;19.390;2022-07-23T03:44:40;97853.31;;;19.12;64.29
50011;BME280;35899;50.352;19.390;2022-07-23T03:47:07;97859.23;;;19.14;64.57
50011;BME280;35899;50.352;19.390;2022-07-23T03:49:35;97866.14;;;19.27;64.96
50011;BME280;35899;50.352;19.390;2022-07-23T03:52:03;97864.81;;;19.40;64.94
50011;BME280;35899;50.352;19.390;2022-07-23T03:54:31;97870.39;;;19.53;64.88
50011;BME280;35899;50.352;19.390;2022-07-23T03:56:58;97869.56;;;19.61;64.78
50011;BME280;35899;50.352;19.390;2022-07-23T03:59:25;97855.91;;;19.69;64.65
50011;BME280;35899;50.352;19.390;2022-07-23T04:01:52;97851.30;;;19.80;64.67
50011;BME280;35899;50.352;19.390;2022-07-23T04:04:19;97848.66;;;19.88;64.51
50011;BME280;35899;50.352;19.390;2022-07-23T04:06:46;97846.81;;;19.97;64.50
50011;BME280;35899;50.352;19.390;2022-07-23T04:09:14;97853.03;;;20.08;64.58
50011;BME280;35899;50.352;19.390;2022-07-23T04:11:41;97851.02;;;20.22;64.75
50011;BME280;35899;50.352;19.390;2022-07-23T04:14:09;97852.59;;;20.40;64.90
50011;BME280;35899;50.352;19.390;2022-07-23T04:16:36;97847.91;;;20.50;64.81
50011;BME280;35899;50.352;19.390;2022-07-23T04:19:03;97845.09;;;20.64;64.73
50011;BME280;35899;50.352;19.390;2022-07-23T04:21:32;97844.47;;;20.85;64.81
50011;BME280;35899;50.352;19.390;2022-07-23T04:23:59;97845.31;;;21.04;64.58
50011;BME280;35899;50.352;19.390;2022-07-23T04:26:26;97851.97;;;21.19;64.15
50011;BME280;35899;50.352;19.390;2022-07-23T04:28:53;97851.72;;;21.29;63.80
50011;BME280;35899;50.352;19.390;2022-07-23T04:31:21;97853.30;;;21.38;63.63
50011;BME280;35899;50.352;19.390;2022-07-23T04:33:49;97855.80;;;21.55;63.64
50011;BME280;35899;50.352;19.390;2022-07-23T04:36:16;97854.64;;;21.72;63.81
50011;BME280;35899;50.352;19.390;2022-07-23T04:38:44;97861.91;;;21.89;63.68
50011;BME280;35899;50.352;19.390;2022-07-23T04:41:11;97856.27;;;22.07;63.38
50011;BME280;35899;50.352;19.390;2022-07-23T04:43:39;97851.58;;;22.13;63.07
50011;BME280;35899;50.352;19.390;2022-07-23T04:46:06;97845.25;;;22.18;63.08
50011;BME280;35899;50.352;19.390;2022-07-23T04:48:34;97848.19;;;22.19;63.10
50011;BME280;35899;50.352;19.390;2022-07-23T04:51:05;97847.89;;;22.18;63.09
50011;BME280;35899;50.352;19.390;2022-07-23T04:53:37;97843.84;;;22.27;63.13
50011;BME280;35899;50.352;19.390;2022-07-23T04:56:05;97844.06;;;22.36;63.10
50011;BME280;35899;50.352;19.390;2022-07-23T04:58:33;97837.22;;;22.52;63.14
50011;BME280;35899;50.352;19.390;2022-07-23T05:01:00;97841.03;;;22.64;62.51
50011;BME280;35899;50.352;19.390;2022-07-23T05:03:28;97847.22;;;22.72;62.60
50011;BME280;35899;50.352;19.390;2022-07-23T05:05:56;97844.09;;;22.83;62.54
50011;BME280;35899;50.352;19.390;2022-07-23T05:08:23;97837.27;;;22.95;62.44
50011;BME280;35899;50.352;19.390;2022-07-23T05:10:52;97839.16;;;23.01;62.56
50011;BME280;35899;50.352;19.390;2022-07-23T05:13:19;97836.17;;;23.05;62.40
50011;BME280;35899;50.352;19.390;2022-07-23T05:15:46;97846.38;;;23.18;62.05
50011;BME280;35899;50.352;19.390;2022-07-23T05:18:13;97849.77;;;23.34;62.03
50011;BME280;35899;50.352;19.390;2022-07-23T05:20:41;97854.73;;;23.43;61.81
50011;BME280;35899;50.352;19.390;2022-07-23T05:23:08;97850.16;;;23.31;61.73
50011;BME280;35899;50.352;19.390;2022-07-23T05:25:36;97853.77;;;23.23;61.84
50011;BME280;35899;50.352;19.390;2022-07-23T05:28:03;97853.30;;;23.30;62.06
50011;BME280;35899;50.352;19.390;2022-07-23T05:30:30;97850.45;;;23.42;62.21
50011;BME280;35899;50.352;19.390;2022-07-23T05:32:59;97849.78;;;23.62;61.87
50011;BME280;35899;50.352;19.390;2022-07-23T05:35:27;97843.20;;;23.79;61.56
50011;BME280;35899;50.352;19.390;2022-07-23T05:37:56;97843.61;;;23.94;61.32
50011;BME280;35899;50.352;19.390;2022-07-23T05:40:25;97843.92;;;24.12;61.10
50011;BME280;35899;50.352;19.390;2022-07-23T05:42:52;97841.18;;;24.16;60.53
50011;BME280;35899;50.352;19.390;2022-07-23T05:45:19;97845.80;;;24.25;60.62
50011;BME280;35899;50.352;19.390;2022-07-23T05:47:48;97841.30;;;24.43;60.31
50011;BME280;35899;50.352;19.390;2022-07-23T05:50:17;97836.68;;;24.58;59.92
50011;BME280;35899;50.352;19.390;2022-07-23T05:52:46;97836.81;;;24.74;59.59
50011;BME280;35899;50.352;19.390;2022-07-23T05:55:15;97834.70;;;24.87;58.93
50011;BME280;35899;50.352;19.390;2022-07-23T05:57:42;97839.84;;;25.02;58.58
50011;BME280;35899;50.352;19.390;2022-07-23T06:00:11;97833.02;;;25.17;58.83
50011;BME280;35899;50.352;19.390;2022-07-23T06:02:42;97831.72;;;25.30;58.67
50011;BME280;35899;50.352;19.390;2022-07-23T06:05:10;97832.02;;;25.45;58.54
50011;BME280;35899;50.352;19.390;2022-07-23T06:07:38;97824.75;;;25.56;58.51
50011;BME280;35899;50.352;19.390;2022-07-23T06:10:06;97822.41;;;25.57;58.35
50011;BME280;35899;50.352;19.390;2022-07-23T06:12:34;97818.31;;;25.61;58.17
50011;BME280;35899;50.352;19.390;2022-07-23T06:15:03;97816.26;;;25.56;58.50
50011;BME280;35899;50.352;19.390;2022-07-23T06:17:32;97811.66;;;25.54;58.56
50011;BME280;35899;50.352;19.390;2022-07-23T06:19:59;97810.74;;;25.58;58.75
50011;BME280;35899;50.352;19.390;2022-07-23T06:22:26;97800.52;;;25.68;58.77
50011;BME280;35899;50.352;19.390;2022-07-23T06:24:53;97799.36;;;25.80;58.61
50011;BME280;35899;50.352;19.390;2022-07-23T06:27:21;97801.09;;;25.84;58.43
50011;BME280;35899;50.352;19.390;2022-07-23T06:29:48;97796.91;;;25.79;58.21
50011;BME280;35899;50.352;19.390;2022-07-23T06:32:16;97799.45;;;25.83;58.53
50011;BME280;35899;50.352;19.390;2022-07-23T06:34:43;97795.66;;;25.94;58.57
50011;BME280;35899;50.352;19.390;2022-07-23T06:37:10;97794.59;;;26.09;58.73
50011;BME280;35899;50.352;19.390;2022-07-23T06:39:37;97790.44;;;26.20;58.80
50011;BME280;35899;50.352;19.390;2022-07-23T06:42:05;97795.10;;;26.31;58.32
50011;BME280;35899;50.352;19.390;2022-07-23T06:44:39;97796.29;;;26.42;58.04
50011;BME280;35899;50.352;19.390;2022-07-23T06:47:07;97790.37;;;26.56;58.17
50011;BME280;35899;50.352;19.390;2022-07-23T06:49:35;97791.37;;;26.68;57.61
50011;BME280;35899;50.352;19.390;2022-07-23T06:52:05;97788.52;;;26.79;57.50
50011;BME280;35899;50.352;19.390;2022-07-23T06:54:33;97793.16;;;26.90;57.13
50011;BME280;35899;50.352;19.390;2022-07-23T06:57:01;97783.66;;;27.01;57.13
50011;BME280;35899;50.352;19.390;2022-07-23T06:59:28;97784.61;;;27.13;56.86
50011;BME280;35899;50.352;19.390;2022-07-23T07:01:55;97779.20;;;27.20;56.50
50011;BME280;35899;50.352;19.390;2022-07-23T07:04:24;97775.93;;;27.34;56.55
50011;BME280;35899;50.352;19.390;2022-07-23T07:06:50;97776.86;;;27.46;56.11
50011;BME280;35899;50.352;19.390;2022-07-23T07:09:17;97774.80;;;27.57;56.00
50011;BME280;35899;50.352;19.390;2022-07-23T07:11:45;97780.49;;;27.70;55.49
50011;BME280;35899;50.352;19.390;2022-07-23T07:14:12;97783.27;;;27.82;55.47
50011;BME280;35899;50.352;19.390;2022-07-23T07:16:39;97779.89;;;27.93;55.20
50011;BME280;35899;50.352;19.390;2022-07-23T07:19:06;97780.45;;;28.04;54.81
50011;BME280;35899;50.352;19.390;2022-07-23T07:21:33;97779.63;;;28.13;54.42
50011;BME280;35899;50.352;19.390;2022-07-23T07:24:00;97783.32;;;28.21;53.90
50011;BME280;35899;50.352;19.390;2022-07-23T07:26:27;97780.58;;;28.28;53.94
50011;BME280;35899;50.352;19.390;2022-07-23T07:28:55;97783.83;;;28.39;53.69
50011;BME280;35899;50.352;19.390;2022-07-23T07:31:22;97783.50;;;28.47;52.93
50011;BME280;35899;50.352;19.390;2022-07-23T07:33:49;97788.69;;;28.61;52.61
50011;BME280;35899;50.352;19.390;2022-07-23T07:36:16;97788.05;;;28.77;52.58
50011;BME280;35899;50.352;19.390;2022-07-23T07:38:43;97768.67;;;28.94;51.42
50011;BME280;35899;50.352;19.390;2022-07-23T07:41:10;97786.80;;;29.13;50.75
50011;BME280;35899;50.352;19.390;2022-07-23T07:43:38;97786.80;;;29.13;50.75
50011;BME280;35899;50.352;19.390;2022-07-23T07:46:05;97783.80;;;29.21;49.84
50011;BME280;35899;50.352;19.390;2022-07-23T07:48:34;97791.29;;;29.33;49.45
50011;BME280;35899;50.352;19.390;2022-07-23T07:51:03;97791.29;;;29.33;49.45
50011;BME280;35899;50.352;19.390;2022-07-23T07:53:31;97778.86;;;29.39;49.88
50011;BME280;35899;50.352;19.390;2022-07-23T07:55:58;97788.95;;;29.60;49.17
50011;BME280;35899;50.352;19.390;2022-07-23T07:58:25;97786.37;;;29.75;47.98
50011;BME280;35899;50.352;19.390;2022-07-23T08:00:52;97784.43;;;29.85;47.31
50011;BME280;35899;50.352;19.390;2022-07-23T08:03:19;97782.03;;;29.97;47.03
50011;BME280;35899;50.352;19.390;2022-07-23T08:05:46;97787.64;;;30.10;47.13
50011;BME280;35899;50.352;19.390;2022-07-23T08:08:14;97789.17;;;30.20;46.06
50011;BME280;35899;50.352;19.390;2022-07-23T08:10:41;97792.80;;;30.29;45.95
50011;BME280;35899;50.352;19.390;2022-07-23T08:13:14;97796.06;;;30.43;45.77
50011;BME280;35899;50.352;19.390;2022-07-23T08:15:43;97796.84;;;30.57;46.10
50011;BME280;35899;50.352;19.390;2022-07-23T08:18:10;97799.66;;;30.65;44.33
50011;BME280;35899;50.352;19.390;2022-07-23T08:20:37;97806.56;;;30.75;44.73
50011;BME280;35899;50.352;19.390;2022-07-23T08:23:06;97809.61;;;30.82;44.94
50011;BME280;35899;50.352;19.390;2022-07-23T08:25:40;97804.05;;;30.86;43.94
50011;BME280;35899;50.352;19.390;2022-07-23T08:28:10;97801.50;;;30.91;43.50
50011;BME280;35899;50.352;19.390;2022-07-23T08:30:40;97793.11;;;31.02;43.48
50011;BME280;35899;50.352;19.390;2022-07-23T08:33:13;97789.27;;;31.14;43.95
50011;BME280;35899;50.352;19.390;2022-07-23T08:35:46;97779.45;;;31.20;43.42
50011;BME280;35899;50.352;19.390;2022-07-23T08:38:17;97775.59;;;31.30;42.83
50011;BME280;35899;50.352;19.390;2022-07-23T08:40:49;97767.16;;;31.41;43.15
50011;BME280;35899;50.352;19.390;2022-07-23T08:43:20;97762.33;;;31.58;43.19
50011;BME280;35899;50.352;19.390;2022-07-23T08:45:51;97760.65;;;31.73;42.05
50011;BME280;35899;50.352;19.390;2022-07-23T08:48:20;97756.50;;;31.85;41.90
50011;BME280;35899;50.352;19.390;2022-07-23T08:50:50;97751.64;;;32.02;41.68
50011;BME280;35899;50.352;19.390;2022-07-23T08:53:21;97759.60;;;32.16;41.41
50011;BME280;35899;50.352;19.390;2022-07-23T08:58:22;97755.89;;;32.47;41.04
50011;BME280;35899;50.352;19.390;2022-07-23T09:00:50;97754.97;;;32.61;41.26
50011;BME280;35899;50.352;19.390;2022-07-23T09:03:22;97748.88;;;32.70;39.78
50011;BME280;35899;50.352;19.390;2022-07-23T09:05:51;97753.45;;;32.70;39.46
50011;BME280;35899;50.352;19.390;2022-07-23T09:08:21;97759.49;;;32.85;39.71
50011;BME280;35899;50.352;19.390;2022-07-23T09:10:58;97754.78;;;33.02;39.21
50011;BME280;35899;50.352;19.390;2022-07-23T09:16:17;97757.75;;;33.38;37.57
50011;BME280;35899;50.352;19.390;2022-07-23T09:18:49;97754.64;;;33.57;36.84
50011;BME280;35899;50.352;19.390;2022-07-23T09:21:24;97756.89;;;33.73;36.66
50011;BME280;35899;50.352;19.390;2022-07-23T09:24:01;97760.97;;;33.80;35.80
50011;BME280;35899;50.352;19.390;2022-07-23T09:26:40;97762.60;;;33.86;36.29
50011;BME280;35899;50.352;19.390;2022-07-23T09:29:19;97757.50;;;33.93;36.45
50011;BME280;35899;50.352;19.390;2022-07-23T09:31:54;97756.47;;;33.99;36.55
50011;BME280;35899;50.352;19.390;2022-07-23T09:34:31;97753.00;;;34.11;36.85
50011;BME280;35899;50.352;19.390;2022-07-23T09:37:16;97756.29;;;34.18;35.96
50011;BME280;35899;50.352;19.390;2022-07-23T09:39:48;97755.48;;;34.23;36.48
50011;BME280;35899;50.352;19.390;2022-07-23T09:42:20;97754.18;;;34.46;36.93
50011;BME280;35899;50.352;19.390;2022-07-23T09:44:51;97749.08;;;34.57;35.89
50011;BME280;35899;50.352;19.390;2022-07-23T09:47:22;97742.64;;;34.63;35.86
50011;BME280;35899;50.352;19.390;2022-07-23T09:50:04;97741.33;;;34.79;35.03
50011;BME280;35899;50.352;19.390;2022-07-23T09:55:10;97753.45;;;35.20;35.06
50011;BME280;35899;50.352;19.390;2022-07-23T09:57:40;97748.02;;;35.40;34.61
50011;BME280;35899;50.352;19.390;2022-07-23T10:00:09;97739.91;;;35.43;34.27
50011;BME280;35899;50.352;19.390;2022-07-23T10:02:37;97746.95;;;35.41;34.55
50011;BME280;35899;50.352;19.390;2022-07-23T10:05:24;97742.33;;;35.55;34.23
50011;BME280;35899;50.352;19.390;2022-07-23T10:07:57;97744.39;;;35.86;34.31
50011;BME280;35899;50.352;19.390;2022-07-23T10:10:46;97740.15;;;36.30;32.08
50011;BME280;35899;50.352;19.390;2022-07-23T10:13:15;97739.99;;;36.53;32.24
50011;BME280;35899;50.352;19.390;2022-07-23T10:16:05;97734.39;;;36.42;31.49
50011;BME280;35899;50.352;19.390;2022-07-23T10:18:32;97733.52;;;36.54;31.93
50011;BME280;35899;50.352;19.390;2022-07-23T10:21:00;97734.20;;;37.04;31.62
50011;BME280;35899;50.352;19.390;2022-07-23T10:23:36;97729.02;;;37.64;31.00
50011;BME280;35899;50.352;19.390;2022-07-23T10:38:29;97721.66;;;39.60;28.05
50011;BME280;35899;50.352;19.390;2022-07-23T10:41:02;97725.34;;;40.06;27.72
50011;BME280;35899;50.352;19.390;2022-07-23T10:43:30;97721.27;;;40.31;27.24
50011;BME280;35899;50.352;19.390;2022-07-23T10:46:28;97709.31;;;40.43;26.24
50011;BME280;35899;50.352;19.390;2022-07-23T10:49:22;97712.15;;;40.50;26.69
50011;BME280;35899;50.352;19.390;2022-07-23T11:00:16;97707.05;;;42.11;24.31
50011;BME280;35899;50.352;19.390;2022-07-23T11:02:55;97709.47;;;42.38;24.27
50011;BME280;35899;50.352;19.390;2022-07-23T11:05:26;97707.83;;;42.72;24.17
50011;BME280;35899;50.352;19.390;2022-07-23T11:08:16;97708.58;;;43.31;24.16
50011;BME280;35899;50.352;19.390;2022-07-23T11:10:49;97704.36;;;43.87;22.89
50011;BME280;35899;50.352;19.390;2022-07-23T11:13:31;97693.13;;;44.37;22.11
50011;BME280;35899;50.352;19.390;2022-07-23T11:24:07;97697.30;;;46.18;20.32
50011;BME280;35899;50.352;19.390;2022-07-23T11:26:54;97698.27;;;46.32;20.04
50011;BME280;35899;50.352;19.390;2022-07-23T11:34:51;97687.45;;;46.74;19.76
50011;BME280;35899;50.352;19.390;2022-07-23T11:37:39;97687.70;;;47.29;19.99
50011;BME280;35899;50.352;19.390;2022-07-23T11:40:11;97679.72;;;47.65;18.39
50011;BME280;35899;50.352;19.390;2022-07-23T11:45:34;97686.67;;;46.17;19.28
50011;BME280;35899;50.352;19.390;2022-07-23T11:48:05;97678.78;;;46.43;19.45
50011;BME280;35899;50.352;19.390;2022-07-23T11:50:33;97674.63;;;46.84;18.77
50011;BME280;35899;50.352;19.390;2022-07-23T11:53:01;97675.69;;;47.27;18.94
50011;BME280;35899;50.352;19.390;2022-07-23T11:55:29;97671.32;;;47.42;18.17
50011;BME280;35899;50.352;19.390;2022-07-23T11:57:56;97671.91;;;47.42;18.77
50011;BME280;35899;50.352;19.390;2022-07-23T12:00:26;97669.55;;;47.85;18.36
50011;BME280;35899;50.352;19.390;2022-07-23T12:03:01;97666.67;;;48.07;17.94
50011;BME280;35899;50.352;19.390;2022-07-23T12:05:33;97663.73;;;47.96;17.50
50011;BME280;35899;50.352;19.390;2022-07-23T12:08:07;97661.48;;;48.31;16.87
50011;BME280;35899;50.352;19.390;2022-07-23T12:10:37;97658.95;;;48.75;17.15
50011;BME280;35899;50.352;19.390;2022-07-23T12:13:08;97658.92;;;49.21;16.52
50011;BME280;35899;50.352;19.390;2022-07-23T12:15:40;97665.29;;;49.65;16.70
50011;BME280;35899;50.352;19.390;2022-07-23T12:18:11;97650.64;;;50.05;16.17
50011;BME280;35899;50.352;19.390;2022-07-23T12:20:42;97646.72;;;50.23;15.83
50011;BME280;35899;50.352;19.390;2022-07-23T12:23:13;97643.48;;;50.51;15.67
50011;BME280;35899;50.352;19.390;2022-07-23T12:25:43;97646.09;;;50.54;15.05
50011;BME280;35899;50.352;19.390;2022-07-23T12:28:12;97638.19;;;50.76;15.25
50011;BME280;35899;50.352;19.390;2022-07-23T12:30:57;97643.04;;;51.14;14.54
50011;BME280;35899;50.352;19.390;2022-07-23T12:33:29;97646.92;;;51.27;15.03
50011;BME280;35899;50.352;19.390;2022-07-23T12:35:59;97647.17;;;51.66;15.12
50011;BME280;35899;50.352;19.390;2022-07-23T12:41:10;97633.89;;;52.08;14.15
50011;BME280;35899;50.352;19.390;2022-07-23T12:43:43;97644.17;;;52.07;13.88
50011;BME280;35899;50.352;19.390;2022-07-23T12:46:13;97609.09;;;51.80;13.55
50011;BME280;35899;50.352;19.390;2022-07-23T12:48:51;97611.55;;;50.98;14.56
50011;BME280;35899;50.352;19.390;2022-07-23T12:51:25;97632.91;;;49.59;15.68
50011;BME280;35899;50.352;19.390;2022-07-23T12:54:06;97622.73;;;48.63;16.64
50011;BME280;35899;50.352;19.390;2022-07-23T12:59:11;97615.56;;;49.05;16.24
50011;BME280;35899;50.352;19.390;2022-07-23T13:01:43;97619.88;;;50.03;16.11
50011;BME280;35899;50.352;19.390;2022-07-23T13:04:16;97609.74;;;50.93;15.69
50011;BME280;35899;50.352;19.390;2022-07-23T13:06:53;97609.06;;;50.41;14.69
50011;BME280;35899;50.352;19.390;2022-07-23T13:09:29;97604.97;;;48.70;16.09
50011;BME280;35899;50.352;19.390;2022-07-23T13:11:58;97604.73;;;46.97;17.37
50011;BME280;35899;50.352;19.390;2022-07-23T13:14:26;97610.87;;;45.90;18.76
50011;BME280;35899;50.352;19.390;2022-07-23T13:16:55;97615.42;;;45.45;19.60
50011;BME280;35899;50.352;19.390;2022-07-23T13:19:22;97611.90;;;45.33;19.70
50011;BME280;35899;50.352;19.390;2022-07-23T13:21:49;97613.89;;;44.68;19.61
50011;BME280;35899;50.352;19.390;2022-07-23T13:24:16;97607.19;;;43.84;20.77
50011;BME280;35899;50.352;19.390;2022-07-23T13:26:43;97603.08;;;42.88;21.10
50011;BME280;35899;50.352;19.390;2022-07-23T13:29:12;97603.42;;;42.02;22.38
50011;BME280;35899;50.352;19.390;2022-07-23T13:31:39;97600.39;;;41.22;23.40
50011;BME280;35899;50.352;19.390;2022-07-23T13:34:06;97599.43;;;40.56;23.64
50011;BME280;35899;50.352;19.390;2022-07-23T13:36:35;97594.22;;;40.00;24.23
50011;BME280;35899;50.352;19.390;2022-07-23T13:39:03;97584.31;;;40.41;24.37
50011;BME280;35899;50.352;19.390;2022-07-23T13:41:30;97576.68;;;42.77;23.62
50011;BME280;35899;50.352;19.390;2022-07-23T13:43:57;97582.58;;;44.96;22.32
50011;BME280;35899;50.352;19.390;2022-07-23T13:46:25;97585.14;;;46.67;21.10
50011;BME280;35899;50.352;19.390;2022-07-23T13:48:52;97592.15;;;47.22;19.74
50011;BME280;35899;50.352;19.390;2022-07-23T13:51:19;97589.45;;;46.30;19.70
50011;BME280;35899;50.352;19.390;2022-07-23T13:53:47;97586.86;;;44.73;20.49